Time;durP1;ratioP1;P1;durP2;ratioP2;P2;SDS_P1;SDS_P2;PMS_P1;PMS_P2;Temp;Humidity;BMP_temperature;BMP_pressure;BME280_temperature;BME280_humidity;BME280_pressure;Samples;Min_cycle;Max_cycle;Signal;HPM_P1;HPM_P2
2022/10/14 00:01:25;;;;;;;;;;;13.00;99.90;;;;;;5076420;28;19940;-68
2022/10/14 00:03:51;;;;;;;;;;;12.90;99.90;;;;;;5094721;28;19908;-67
2022/10/14 00:06:19;;;;;;;;;;;12.90;99.90;;;;;;5094382;28;19909;-68
2022/10/14 00:08:46;;;;;;;;;;;12.90;99.90;;;;;;5094365;28;19959;-68
2022/10/14 00:11:14;;;;;;;;;;;12.90;99.90;;;;;;5094289;28;20333;-67
2022/10/14 00:13:40;;;;;;;;;;;12.90;99.90;;;;;;5094269;28;19908;-68
2022/10/14 00:16:06;;;;;;;;;;;12.90;99.90;;;;;;5094214;28;20289;-68
2022/10/14 00:18:31;;;;;;;;;;;12.90;99.90;;;;;;5094225;28;19908;-68
2022/10/14 00:20:58;;;;;;;;;;;12.90;99.90;;;;;;5094177;28;20074;-68
2022/10/14 00:23:23;;;;;;;;;;;12.90;99.90;;;;;;5094165;28;19908;-67
2022/10/14 00:25:49;;;;;;;;;;;12.90;99.90;;;;;;5094143;28;19915;-67
2022/10/14 00:28:15;;;;;;;;;;;12.90;99.90;;;;;;5094138;28;19908;-67
2022/10/14 00:30:40;;;;;;;;;;;12.90;99.90;;;;;;5094354;28;19908;-67
2022/10/14 00:33:06;;;;;;;;;;;12.90;99.90;;;;;;5094204;28;19995;-67
2022/10/14 00:35:31;;;;;;;;;;;12.90;99.90;;;;;;5094248;28;19908;-68
2022/10/14 00:37:57;;;;;;;;;;;12.90;99.90;;;;;;5093908;28;19930;-67
2022/10/14 00:40:22;;;;;;;;;;;12.90;99.90;;;;;;5094168;28;19908;-68
2022/10/14 00:42:48;;;;;;;;;;;12.90;99.90;;;;;;5094153;28;19908;-68
2022/10/14 00:45:14;;;;;;;;;;;12.90;99.90;;;;;;5094128;28;19912;-67
2022/10/14 00:47:41;;;;;;;;;;;12.90;99.90;;;;;;5093645;28;19912;-67
2022/10/14 00:50:08;;;;;;;;;;;12.90;99.90;;;;;;5075637;28;19914;-68
2022/10/14 00:52:33;;;;;;;;;;;12.90;99.90;;;;;;5093476;28;20095;-68
2022/10/14 00:55:02;;;;;;;;;;;12.90;99.90;;;;;;5093772;28;19912;-68
2022/10/14 00:57:28;;;;;;;;;;;12.90;99.90;;;;;;5093780;28;19908;-67
2022/10/14 00:59:55;;;;;;;;;;;12.90;99.90;;;;;;5093714;28;19912;-67
2022/10/14 01:02:21;;;;;;;;;;;12.90;99.90;;;;;;5093721;28;19957;-67
2022/10/14 01:04:46;;;;;;;;;;;12.90;99.90;;;;;;5093934;28;19909;-68
2022/10/14 01:07:17;;;;;;;;;;;12.90;99.90;;;;;;5093650;28;19954;-67
2022/10/14 01:10:03;;;;;;;;;;;12.90;99.90;;;;;;5093966;28;20361;-67
2022/10/14 01:12:49;;;;;;;;;;;12.90;99.90;;;;;;5075314;28;19959;-68
2022/10/14 01:21:05;;;;;;;;;;;12.90;99.90;;;;;;5108273;27;1868285;-66
2022/10/14 01:23:37;;;;;;;;;;;12.90;99.90;;;;;;5173486;27;19911;-66
2022/10/14 01:26:22;;;;;;;;;;;12.90;99.90;;;;;;5173830;27;19911;-66
2022/10/14 01:28:53;;;;;;;;;;;12.90;99.90;;;;;;5173323;27;19911;-66
2022/10/14 01:31:21;;;;;;;;;;;12.90;99.90;;;;;;5173437;27;20001;-66
2022/10/14 01:33:48;;;;;;;;;;;12.90;99.90;;;;;;5173590;27;20283;-66
2022/10/14 01:36:23;;;;;;;;;;;12.90;99.90;;;;;;5173469;27;19907;-66
2022/10/14 01:39:08;;;;;;;;;;;12.90;99.90;;;;;;5137335;27;19939;-66
2022/10/14 01:41:36;;;;;;;;;;;12.90;99.90;;;;;;5173086;27;19914;-68
2022/10/14 01:44:04;;;;;;;;;;;12.90;99.90;;;;;;5173175;27;19907;-66
2022/10/14 01:46:30;;;;;;;;;;;12.90;99.90;;;;;;5173126;27;20410;-66
2022/10/14 01:48:59;;;;;;;;;;;12.90;99.90;;;;;;5173155;27;20367;-66
2022/10/14 01:51:28;;;;;;;;;;;12.90;99.90;;;;;;5173328;27;20369;-66
2022/10/14 01:53:57;;;;;;;;;;;12.90;99.90;;;;;;5173001;27;19914;-66
2022/10/14 01:56:24;;;;;;;;;;;12.90;99.90;;;;;;5172973;27;20015;-66
2022/10/14 01:58:51;;;;;;;;;;;12.90;99.90;;;;;;5172803;27;19915;-66
2022/10/14 02:01:17;;;;;;;;;;;12.90;99.90;;;;;;5172873;27;19907;-66
2022/10/14 02:03:44;;;;;;;;;;;12.80;99.90;;;;;;5173068;27;20271;-66
2022/10/14 02:06:16;;;;;;;;;;;12.90;99.90;;;;;;5172968;27;19907;-66
2022/10/14 02:08:57;;;;;;;;;;;12.90;99.90;;;;;;5172714;27;19907;-66
2022/10/14 02:11:23;;;;;;;;;;;12.90;99.90;;;;;;5172909;27;19932;-66
2022/10/14 02:14:10;;;;;;;;;;;12.80;99.90;;;;;;5172856;27;20359;-66
2022/10/14 02:16:38;;;;;;;;;;;12.90;99.90;;;;;;5172536;27;19919;-66
2022/10/14 02:19:09;;;;;;;;;;;12.80;99.90;;;;;;5172466;27;19954;-65
2022/10/14 02:21:38;;;;;;;;;;;12.90;99.90;;;;;;5172512;27;20363;-66
2022/10/14 02:24:14;;;;;;;;;;;12.80;99.90;;;;;;5172420;27;19907;-66
2022/10/14 02:26:41;;;;;;;;;;;12.90;99.90;;;;;;5172655;27;19907;-66
2022/10/14 02:29:06;;;;;;;;;;;12.80;99.90;;;;;;5172310;27;19907;-66
2022/10/14 02:31:33;;;;;;;;;;;12.90;99.90;;;;;;5161802;27;19956;-66
2022/10/14 02:34:01;;;;;;;;;;;12.90;99.90;;;;;;5158333;27;19919;-66
2022/10/14 02:36:27;;;;;;;;;;;12.90;99.90;;;;;;5158565;27;19959;-66
2022/10/14 02:38:54;;;;;;;;;;;12.90;99.90;;;;;;5158385;27;19911;-66
2022/10/14 02:41:21;;;;;;;;;;;12.90;99.90;;;;;;5158168;27;19907;-66
2022/10/14 02:43:47;;;;;;;;;;;12.90;99.90;;;;;;5158206;27;19907;-66
2022/10/14 02:46:13;;;;;;;;;;;12.90;99.90;;;;;;5158345;27;19907;-66
2022/10/14 02:48:38;;;;;;;;;;;12.90;99.90;;;;;;5158042;27;19912;-66
2022/10/14 02:51:04;;;;;;;;;;;12.90;99.90;;;;;;5158264;27;19970;-66
2022/10/14 02:53:29;;;;;;;;;;;12.90;99.90;;;;;;5138540;27;19911;-66
2022/10/14 02:55:55;;;;;;;;;;;12.90;99.90;;;;;;5157904;27;19907;-66
2022/10/14 02:58:21;;;;;;;;;;;12.90;99.90;;;;;;5158101;27;20017;-66
2022/10/14 03:00:47;;;;;;;;;;;12.90;99.90;;;;;;5157766;27;19957;-66
2022/10/14 03:03:13;;;;;;;;;;;12.90;99.90;;;;;;5157988;27;19940;-66
2022/10/14 03:05:38;;;;;;;;;;;12.90;99.90;;;;;;5139255;27;20455;-66
2022/10/14 03:08:04;;;;;;;;;;;13.00;99.90;;;;;;5157651;27;19930;-66
2022/10/14 03:10:29;;;;;;;;;;;12.90;99.90;;;;;;5157769;27;19907;-66
2022/10/14 03:12:55;;;;;;;;;;;12.90;99.90;;;;;;5157563;27;20352;-66
2022/10/14 03:15:20;;;;;;;;;;;12.90;99.90;;;;;;5139047;27;20275;-66
2022/10/14 03:17:46;;;;;;;;;;;12.90;99.90;;;;;;5157460;27;19907;-66
2022/10/14 03:20:11;;;;;;;;;;;12.90;99.90;;;;;;5157363;27;19919;-66
2022/10/14 03:22:36;;;;;;;;;;;12.90;99.90;;;;;;5157377;27;19918;-66
2022/10/14 03:25:02;;;;;;;;;;;12.90;99.90;;;;;;5157586;27;19906;-66
2022/10/14 03:27:27;;;;;;;;;;;12.90;99.90;;;;;;5157534;27;20382;-66
2022/10/14 03:29:53;;;;;;;;;;;12.90;99.90;;;;;;5157186;27;20006;-66
2022/10/14 03:32:18;;;;;;;;;;;12.90;99.90;;;;;;5157157;27;19934;-66
2022/10/14 03:34:44;;;;;;;;;;;12.90;99.90;;;;;;5157160;27;19999;-66
2022/10/14 03:37:09;;;;;;;;;;;12.90;99.90;;;;;;5157072;27;19914;-65
2022/10/14 03:39:35;;;;;;;;;;;12.90;99.90;;;;;;5156926;27;19934;-66
2022/10/14 03:42:00;;;;;;;;;;;12.90;99.90;;;;;;5156201;27;19914;-65
2022/10/14 03:44:26;;;;;;;;;;;12.90;99.90;;;;;;5156650;27;19999;-66
2022/10/14 03:46:51;;;;;;;;;;;12.80;99.90;;;;;;5156885;27;19907;-66
2022/10/14 03:49:17;;;;;;;;;;;12.80;99.90;;;;;;5156850;27;19907;-66
2022/10/14 03:51:42;;;;;;;;;;;12.80;99.90;;;;;;5157055;27;19911;-66
2022/10/14 03:54:07;;;;;;;;;;;12.80;99.90;;;;;;5157013;27;19933;-65
2022/10/14 03:56:33;;;;;;;;;;;12.80;99.90;;;;;;5156952;27;20267;-65
2022/10/14 03:58:58;;;;;;;;;;;12.80;99.90;;;;;;5156828;27;20029;-65
2022/10/14 04:01:24;;;;;;;;;;;12.80;99.90;;;;;;5156582;27;20391;-66
2022/10/14 04:03:50;;;;;;;;;;;12.80;99.90;;;;;;5156777;27;19918;-65
2022/10/14 04:06:16;;;;;;;;;;;12.80;99.90;;;;;;5156792;27;19907;-65
2022/10/14 04:08:42;;;;;;;;;;;12.80;99.90;;;;;;5156509;27;20350;-65
2022/10/14 04:11:08;;;;;;;;;;;12.80;99.90;;;;;;5156720;27;20281;-66
2022/10/14 04:13:33;;;;;;;;;;;12.80;99.90;;;;;;5156643;27;19914;-66
2022/10/14 04:16:01;;;;;;;;;;;12.80;99.90;;;;;;5156622;27;19994;-65
2022/10/14 04:18:27;;;;;;;;;;;12.80;99.90;;;;;;5156243;27;19914;-65
2022/10/14 04:20:53;;;;;;;;;;;12.80;99.90;;;;;;5156090;27;20354;-65
2022/10/14 04:23:19;;;;;;;;;;;12.80;99.90;;;;;;5156464;27;20364;-66
2022/10/14 04:25:44;;;;;;;;;;;12.80;99.90;;;;;;5156385;27;19957;-65
2022/10/14 04:28:10;;;;;;;;;;;12.80;99.90;;;;;;5156064;27;19907;-66
2022/10/14 04:30:35;;;;;;;;;;;12.80;99.90;;;;;;5156050;27;20399;-65
2022/10/14 04:33:01;;;;;;;;;;;12.80;99.90;;;;;;5155991;27;20291;-65
2022/10/14 04:35:26;;;;;;;;;;;12.80;99.90;;;;;;5155925;27;19994;-65
2022/10/14 04:37:52;;;;;;;;;;;12.80;99.90;;;;;;5155913;27;20336;-66
2022/10/14 04:40:19;;;;;;;;;;;12.80;99.90;;;;;;5137527;27;19911;-65
2022/10/14 04:42:44;;;;;;;;;;;12.80;99.90;;;;;;5155785;27;20002;-66
2022/10/14 04:45:10;;;;;;;;;;;12.80;99.90;;;;;;5155767;27;19965;-65
2022/10/14 04:47:35;;;;;;;;;;;12.80;99.90;;;;;;5155759;27;19907;-66
2022/10/14 04:50:01;;;;;;;;;;;12.80;99.90;;;;;;5155637;27;19952;-66
2022/10/14 04:52:26;;;;;;;;;;;12.80;99.90;;;;;;5155554;27;20352;-65
2022/10/14 04:54:52;;;;;;;;;;;12.80;99.90;;;;;;5155703;27;20002;-66
2022/10/14 04:57:17;;;;;;;;;;;12.80;99.90;;;;;;5155573;27;20244;-65
2022/10/14 04:59:42;;;;;;;;;;;12.80;99.90;;;;;;5155439;27;19972;-66
2022/10/14 05:02:08;;;;;;;;;;;12.70;99.90;;;;;;5155513;27;19911;-65
2022/10/14 05:04:33;;;;;;;;;;;12.70;99.90;;;;;;5155460;27;19907;-65
2022/10/14 05:06:59;;;;;;;;;;;12.80;99.90;;;;;;5155477;27;19907;-66
2022/10/14 05:09:24;;;;;;;;;;;12.70;99.90;;;;;;5155395;27;20386;-66
2022/10/14 05:11:50;;;;;;;;;;;12.80;99.90;;;;;;5155639;27;19908;-65
2022/10/14 05:14:15;;;;;;;;;;;12.80;99.90;;;;;;5155686;27;19955;-66
2022/10/14 05:16:41;;;;;;;;;;;12.80;99.90;;;;;;5155636;27;19907;-65
2022/10/14 05:19:06;;;;;;;;;;;12.70;99.90;;;;;;5155066;27;20338;-66
2022/10/14 05:21:32;;;;;;;;;;;12.80;99.90;;;;;;5155353;27;19951;-65
2022/10/14 05:23:57;;;;;;;;;;;12.80;99.90;;;;;;5155321;27;19911;-65
2022/10/14 05:26:22;;;;;;;;;;;12.70;99.90;;;;;;5155260;27;19907;-65
2022/10/14 05:28:50;;;;;;;;;;;12.80;99.90;;;;;;5152854;27;19919;-65
2022/10/14 05:31:15;;;;;;;;;;;12.70;99.90;;;;;;5153250;27;19914;-65
2022/10/14 05:33:41;;;;;;;;;;;12.70;99.90;;;;;;5155394;27;19907;-65
2022/10/14 05:36:06;;;;;;;;;;;12.70;99.90;;;;;;5155087;27;19907;-65
2022/10/14 05:38:33;;;;;;;;;;;12.70;99.90;;;;;;5154976;27;20001;-65
2022/10/14 05:40:58;;;;;;;;;;;12.80;99.90;;;;;;5155272;27;19908;-65
2022/10/14 05:43:24;;;;;;;;;;;12.70;99.90;;;;;;5154909;27;20026;-65
2022/10/14 05:45:52;;;;;;;;;;;12.70;99.90;;;;;;5155000;27;19907;-66
2022/10/14 05:48:18;;;;;;;;;;;12.70;99.90;;;;;;5136491;27;19911;-67
2022/10/14 05:50:44;;;;;;;;;;;12.70;99.90;;;;;;5154686;27;20012;-65
2022/10/14 05:53:10;;;;;;;;;;;12.80;99.90;;;;;;5154971;27;19907;-65
2022/10/14 05:55:36;;;;;;;;;;;12.70;99.90;;;;;;5154658;27;19907;-65
2022/10/14 05:58:01;;;;;;;;;;;12.80;99.90;;;;;;5154924;27;19915;-65
2022/10/14 06:00:27;;;;;;;;;;;12.80;99.90;;;;;;5154727;27;19917;-65
2022/10/14 06:02:52;;;;;;;;;;;12.80;99.90;;;;;;5136429;27;19907;-65
2022/10/14 06:05:18;;;;;;;;;;;12.80;99.90;;;;;;5154903;27;20430;-65
2022/10/14 06:07:43;;;;;;;;;;;12.80;99.90;;;;;;5140243;27;19957;-65
2022/10/14 06:10:10;;;;;;;;;;;12.70;99.90;;;;;;5158562;27;20360;-65
2022/10/14 06:12:35;;;;;;;;;;;12.80;99.90;;;;;;5158067;27;19950;-65
2022/10/14 06:15:01;;;;;;;;;;;12.80;99.90;;;;;;5140206;27;20295;-68
2022/10/14 06:17:27;;;;;;;;;;;12.80;99.90;;;;;;5139243;27;19915;-67
2022/10/14 06:19:53;;;;;;;;;;;12.80;99.90;;;;;;5136984;27;20018;-65
2022/10/14 06:22:18;;;;;;;;;;;12.70;99.90;;;;;;5137783;27;19965;-65
2022/10/14 06:24:44;;;;;;;;;;;12.80;99.90;;;;;;5137706;27;19907;-66
2022/10/14 06:27:09;;;;;;;;;;;12.70;99.90;;;;;;5147907;27;19918;-65
2022/10/14 06:29:36;;;;;;;;;;;12.80;99.90;;;;;;5146596;27;19915;-65
2022/10/14 06:32:03;;;;;;;;;;;12.70;99.90;;;;;;5140117;27;19915;-66
2022/10/14 06:34:28;;;;;;;;;;;12.80;99.90;;;;;;5137575;27;19930;-66
2022/10/14 06:36:54;;;;;;;;;;;12.80;99.90;;;;;;5139881;27;19911;-66
2022/10/14 06:39:19;;;;;;;;;;;12.90;99.90;;;;;;5137077;27;19915;-66
2022/10/14 06:41:45;;;;;;;;;;;12.80;99.90;;;;;;5138521;27;19907;-65
2022/10/14 06:44:10;;;;;;;;;;;12.90;99.90;;;;;;5143848;27;20387;-65
2022/10/14 06:46:36;;;;;;;;;;;12.90;99.90;;;;;;5145160;27;20018;-65
2022/10/14 06:49:07;;;;;;;;;;;12.90;99.90;;;;;;5157833;27;19907;-68
2022/10/14 06:51:32;;;;;;;;;;;12.90;99.90;;;;;;5142373;27;19918;-66
2022/10/14 06:53:58;;;;;;;;;;;13.00;99.90;;;;;;5155686;27;19998;-66
2022/10/14 06:56:23;;;;;;;;;;;13.10;99.90;;;;;;5157579;27;20328;-65
2022/10/14 06:58:52;;;;;;;;;;;13.10;99.90;;;;;;5157541;27;19911;-65
2022/10/14 07:01:17;;;;;;;;;;;13.20;99.90;;;;;;5157410;27;19914;-66
2022/10/14 07:03:43;;;;;;;;;;;13.30;99.90;;;;;;5157597;27;19907;-66
2022/10/14 07:06:08;;;;;;;;;;;13.30;99.90;;;;;;5157625;27;19956;-66
2022/10/14 07:08:34;;;;;;;;;;;13.40;99.90;;;;;;5138702;27;19999;-66
2022/10/14 07:10:59;;;;;;;;;;;13.50;99.90;;;;;;5157251;27;19907;-66
2022/10/14 07:13:25;;;;;;;;;;;13.50;99.90;;;;;;5157467;27;19930;-67
2022/10/14 07:15:51;;;;;;;;;;;13.60;99.90;;;;;;5157474;27;19963;-66
2022/10/14 07:18:17;;;;;;;;;;;13.80;99.90;;;;;;5157520;27;19956;-68
2022/10/14 07:20:42;;;;;;;;;;;14.20;99.90;;;;;;5156958;27;19942;-66
2022/10/14 07:23:08;;;;;;;;;;;14.70;99.90;;;;;;5156876;27;19907;-66
2022/10/14 07:25:33;;;;;;;;;;;14.80;99.90;;;;;;5157116;27;19907;-66
2022/10/14 07:27:59;;;;;;;;;;;14.70;99.90;;;;;;5157070;27;20344;-67
2022/10/14 07:30:32;;;;;;;;;;;14.70;99.90;;;;;;5157248;27;19907;-67
2022/10/14 07:32:58;;;;;;;;;;;14.70;99.90;;;;;;5157236;27;19914;-66
2022/10/14 07:35:25;;;;;;;;;;;14.70;99.90;;;;;;5156682;27;19907;-67
2022/10/14 07:37:51;;;;;;;;;;;14.60;99.90;;;;;;5156967;27;19907;-67
2022/10/14 07:40:17;;;;;;;;;;;14.50;99.90;;;;;;5138208;27;20391;-67
2022/10/14 07:42:42;;;;;;;;;;;14.30;99.90;;;;;;5157128;27;19907;-67
2022/10/14 07:45:08;;;;;;;;;;;14.20;99.90;;;;;;5156788;27;20072;-67
2022/10/14 07:47:34;;;;;;;;;;;14.20;99.90;;;;;;5156763;27;19907;-67
2022/10/14 07:50:00;;;;;;;;;;;14.20;99.90;;;;;;5156963;27;20271;-67
2022/10/14 07:52:26;;;;;;;;;;;14.20;99.90;;;;;;5156768;27;19955;-67
2022/10/14 07:54:51;;;;;;;;;;;14.10;99.90;;;;;;5156955;27;19911;-67
2022/10/14 07:57:17;;;;;;;;;;;14.10;99.90;;;;;;5156578;27;19950;-67
2022/10/14 07:59:42;;;;;;;;;;;14.20;99.90;;;;;;5156078;27;19911;-67
2022/10/14 08:02:09;;;;;;;;;;;14.30;99.90;;;;;;5156438;27;20016;-67
2022/10/14 08:04:35;;;;;;;;;;;14.30;99.90;;;;;;5156731;27;20364;-66
2022/10/14 08:07:00;;;;;;;;;;;14.40;99.90;;;;;;5156418;27;19915;-66
2022/10/14 08:09:26;;;;;;;;;;;14.60;99.90;;;;;;5156389;27;19907;-67
2022/10/14 08:11:51;;;;;;;;;;;14.70;99.90;;;;;;5155935;27;20001;-67
2022/10/14 08:14:17;;;;;;;;;;;14.80;99.90;;;;;;5155716;27;19913;-66
2022/10/14 08:16:42;;;;;;;;;;;14.90;99.90;;;;;;5156524;27;19907;-67
2022/10/14 08:19:09;;;;;;;;;;;15.00;99.90;;;;;;5155877;27;19919;-67
2022/10/14 08:21:35;;;;;;;;;;;15.20;99.90;;;;;;5156323;27;19934;-66
2022/10/14 08:24:00;;;;;;;;;;;15.50;99.90;;;;;;5155904;27;19907;-67
2022/10/14 08:26:34;;;;;;;;;;;15.70;99.90;;;;;;5156027;27;19911;-67
2022/10/14 08:29:00;;;;;;;;;;;15.90;99.90;;;;;;5155677;27;20381;-67
2022/10/14 08:31:26;;;;;;;;;;;16.00;99.90;;;;;;5155670;27;20367;-67
2022/10/14 08:33:52;;;;;;;;;;;16.10;99.90;;;;;;5155904;27;19915;-67
2022/10/14 08:36:18;;;;;;;;;;;16.20;99.90;;;;;;5155621;27;19917;-67
2022/10/14 08:38:43;;;;;;;;;;;16.40;99.90;;;;;;5156074;27;19955;-67
2022/10/14 08:41:15;;;;;;;;;;;16.30;99.90;;;;;;5155622;27;19919;-67
2022/10/14 08:43:46;;;;;;;;;;;16.50;99.90;;;;;;5155817;27;19914;-67
2022/10/14 08:46:23;;;;;;;;;;;16.50;99.90;;;;;;5155570;27;19907;-67
2022/10/14 08:48:50;;;;;;;;;;;16.30;99.90;;;;;;5155204;27;19968;-67
2022/10/14 08:51:16;;;;;;;;;;;16.30;99.90;;;;;;5155366;27;19907;-67
2022/10/14 08:53:45;;;;;;;;;;;16.20;99.90;;;;;;5155566;27;19946;-67
2022/10/14 08:56:10;;;;;;;;;;;16.30;99.90;;;;;;5136838;27;20006;-67
2022/10/14 08:58:38;;;;;;;;;;;16.20;99.90;;;;;;5136911;27;19913;-67
2022/10/14 09:01:12;;;;;;;;;;;16.30;99.90;;;;;;5155069;27;20284;-67
2022/10/14 09:03:37;;;;;;;;;;;16.20;99.90;;;;;;5155448;27;20276;-67
2022/10/14 09:06:14;;;;;;;;;;;16.30;99.90;;;;;;5155647;27;19915;-67
2022/10/14 09:08:41;;;;;;;;;;;16.40;99.90;;;;;;5155434;27;19998;-67
2022/10/14 09:11:10;;;;;;;;;;;16.60;99.90;;;;;;5154984;27;19914;-67
2022/10/14 09:13:38;;;;;;;;;;;16.60;99.90;;;;;;5154988;27;19908;-67
2022/10/14 09:16:11;;;;;;;;;;;16.80;99.90;;;;;;5155266;27;19907;-67
2022/10/14 09:18:40;;;;;;;;;;;17.00;99.90;;;;;;5136591;27;19994;-67
2022/10/14 09:21:23;;;;;;;;;;;17.20;99.90;;;;;;5136582;27;19911;-67
2022/10/14 09:23:52;;;;;;;;;;;17.40;99.90;;;;;;5155437;27;19907;-67
2022/10/14 09:26:18;;;;;;;;;;;17.60;99.90;;;;;;5154943;27;19911;-67
2022/10/14 09:28:44;;;;;;;;;;;17.70;99.90;;;;;;5155182;27;19907;-67
2022/10/14 09:31:10;;;;;;;;;;;17.80;99.90;;;;;;5155115;27;20360;-67
2022/10/14 09:33:38;;;;;;;;;;;18.20;99.90;;;;;;5155042;27;19911;-67
2022/10/14 09:36:07;;;;;;;;;;;18.20;99.90;;;;;;5155097;27;20001;-67
2022/10/14 09:38:33;;;;;;;;;;;17.90;99.90;;;;;;5136750;27;19972;-67
2022/10/14 09:40:58;;;;;;;;;;;17.60;99.90;;;;;;5156304;27;19915;-67
2022/10/14 09:43:24;;;;;;;;;;;17.40;99.90;;;;;;5159633;27;19908;-67
2022/10/14 09:45:51;;;;;;;;;;;17.20;99.90;;;;;;5159437;27;20378;-67
2022/10/14 09:48:19;;;;;;;;;;;17.10;99.90;;;;;;5159187;27;19907;-67
2022/10/14 09:50:50;;;;;;;;;;;16.90;99.90;;;;;;5158631;27;19907;-67
2022/10/14 09:53:17;;;;;;;;;;;16.90;99.90;;;;;;5159177;27;19907;-67
2022/10/14 09:55:53;;;;;;;;;;;16.90;99.90;;;;;;5123292;27;19907;-67
2022/10/14 09:58:24;;;;;;;;;;;16.80;99.90;;;;;;5158916;27;19907;-67
2022/10/14 10:00:55;;;;;;;;;;;16.80;99.90;;;;;;5158634;27;20033;-67
2022/10/14 10:03:25;;;;;;;;;;;16.80;99.90;;;;;;5158753;27;20009;-67
2022/10/14 10:06:00;;;;;;;;;;;16.80;99.90;;;;;;5159110;27;20002;-67
2022/10/14 10:08:25;;;;;;;;;;;16.80;99.90;;;;;;5158763;27;20371;-67
2022/10/14 10:11:09;;;;;;;;;;;16.90;99.90;;;;;;5158560;27;19907;-67
2022/10/14 10:13:38;;;;;;;;;;;16.90;99.90;;;;;;5158845;27;19953;-67
2022/10/14 10:16:05;;;;;;;;;;;17.00;99.90;;;;;;5158614;27;19907;-67
2022/10/14 10:18:31;;;;;;;;;;;17.00;99.90;;;;;;5140400;27;19907;-67
2022/10/14 10:21:01;;;;;;;;;;;17.10;99.90;;;;;;5158102;27;19963;-67
2022/10/14 10:23:27;;;;;;;;;;;17.20;99.90;;;;;;5158567;27;20325;-67
2022/10/14 10:25:53;;;;;;;;;;;17.10;99.90;;;;;;5158761;27;19998;-67
2022/10/14 10:28:26;;;;;;;;;;;17.10;99.90;;;;;;5157926;27;19953;-67
2022/10/14 10:31:12;;;;;;;;;;;17.10;99.90;;;;;;5158378;27;19914;-67
2022/10/14 10:33:49;;;;;;;;;;;17.10;99.90;;;;;;5139653;27;19908;-68
2022/10/14 10:36:27;;;;;;;;;;;17.20;99.90;;;;;;5158220;27;19908;-67
2022/10/14 10:38:56;;;;;;;;;;;17.40;99.90;;;;;;5158065;27;19914;-67
2022/10/14 10:41:31;;;;;;;;;;;17.50;99.90;;;;;;5158020;27;19914;-68
2022/10/14 10:44:16;;;;;;;;;;;17.50;99.90;;;;;;5158041;27;19907;-67
2022/10/14 10:46:54;;;;;;;;;;;17.30;99.90;;;;;;5157932;27;19914;-67
2022/10/14 10:52:27;;;;;;;;;;;17.20;99.90;;;;;;5070725;28;19920;-67
2022/10/14 10:55:00;;;;;;;;;;;17.30;99.90;;;;;;5070687;28;20435;-67
2022/10/14 11:00:52;;;;;;;;;;;17.30;99.90;;;;;;5070307;28;19931;-67
2022/10/14 11:03:38;;;;;;;;;;;17.30;99.90;;;;;;5070570;28;19908;-67
2022/10/14 11:06:08;;;;;;;;;;;17.10;99.90;;;;;;5070349;28;19913;-67
2022/10/14 11:13:55;;;;;;;;;;;17.20;99.90;;;;;;5091332;27;19919;-67
2022/10/14 11:16:26;;;;;;;;;;;17.30;99.90;;;;;;5091034;28;20293;-67
2022/10/14 11:19:02;;;;;;;;;;;17.50;99.90;;;;;;5090935;28;19915;-67
2022/10/14 11:21:48;;;;;;;;;;;17.70;99.90;;;;;;5090903;28;19920;-67
2022/10/14 11:24:27;;;;;;;;;;;17.80;99.90;;;;;;5090837;28;19908;-67
2022/10/14 11:26:58;;;;;;;;;;;18.00;99.90;;;;;;5091122;28;19912;-67
2022/10/14 11:29:45;;;;;;;;;;;18.10;99.90;;;;;;5090970;28;20419;-67
2022/10/14 11:32:30;;;;;;;;;;;18.00;99.90;;;;;;5089736;28;20310;-67
2022/10/14 11:35:06;;;;;;;;;;;17.90;99.90;;;;;;5090515;28;20384;-67
2022/10/14 11:37:39;;;;;;;;;;;17.80;99.90;;;;;;5090609;28;20306;-67
2022/10/14 11:40:15;;;;;;;;;;;17.60;99.90;;;;;;5090412;28;19908;-67
2022/10/14 11:42:49;;;;;;;;;;;17.50;99.90;;;;;;5090446;28;19909;-67
2022/10/14 11:47:56;;;;;;;;;;;17.50;99.90;;;;;;5070564;28;19913;-67
2022/10/14 11:50:25;;;;;;;;;;;17.50;99.90;;;;;;5070709;28;19919;-67
2022/10/14 11:52:55;;;;;;;;;;;17.40;99.90;;;;;;5070810;28;19916;-67
2022/10/14 11:55:22;;;;;;;;;;;17.40;99.90;;;;;;5070645;28;20389;-67
2022/10/14 11:57:52;;;;;;;;;;;17.40;99.90;;;;;;5086449;28;19963;-67
2022/10/14 12:00:20;;;;;;;;;;;17.40;99.90;;;;;;5070781;28;20374;-67
2022/10/14 12:02:53;;;;;;;;;;;17.40;99.90;;;;;;5069309;28;19908;-67
2022/10/14 12:05:21;;;;;;;;;;;17.40;99.90;;;;;;5069173;28;20071;-67
2022/10/14 12:07:52;;;;;;;;;;;17.40;99.90;;;;;;5070329;28;19912;-67
2022/10/14 12:10:29;;;;;;;;;;;17.40;99.90;;;;;;5069145;28;20400;-67
2022/10/14 12:12:55;;;;;;;;;;;17.40;99.90;;;;;;5070509;28;20323;-67
2022/10/14 12:15:22;;;;;;;;;;;17.30;99.90;;;;;;5070643;28;19938;-67
2022/10/14 12:18:03;;;;;;;;;;;17.30;99.90;;;;;;5070569;28;19959;-67
2022/10/14 12:20:48;;;;;;;;;;;17.30;99.90;;;;;;5070239;28;20362;-67
2022/10/14 12:23:18;;;;;;;;;;;17.20;99.90;;;;;;5070511;28;20393;-67
2022/10/14 12:25:50;;;;;;;;;;;17.20;99.90;;;;;;5068727;28;19908;-67
2022/10/14 12:28:17;;;;;;;;;;;17.20;99.90;;;;;;5070057;28;19916;-67
2022/10/14 12:30:43;;;;;;;;;;;17.20;99.90;;;;;;5068793;28;20009;-67
2022/10/14 12:33:09;;;;;;;;;;;17.20;99.90;;;;;;5070291;28;19951;-67
2022/10/14 12:35:58;;;;;;;;;;;17.20;99.90;;;;;;5070346;28;20393;-67
2022/10/14 12:38:25;;;;;;;;;;;17.10;99.90;;;;;;5069859;28;19927;-68
2022/10/14 12:40:51;;;;;;;;;;;17.10;99.90;;;;;;5069914;28;20393;-67
2022/10/14 12:43:22;;;;;;;;;;;17.10;99.90;;;;;;5070116;28;19908;-67
2022/10/14 12:45:50;;;;;;;;;;;17.10;99.90;;;;;;5072664;28;19968;-67
2022/10/14 12:48:18;;;;;;;;;;;17.10;99.90;;;;;;5090288;28;19908;-67
2022/10/14 12:50:45;;;;;;;;;;;17.10;99.90;;;;;;5089927;28;20316;-67
2022/10/14 12:53:15;;;;;;;;;;;17.10;99.90;;;;;;5089956;28;19992;-67
2022/10/14 12:55:50;;;;;;;;;;;17.10;99.90;;;;;;5090156;28;20357;-67
2022/10/14 12:58:21;;;;;;;;;;;17.10;99.90;;;;;;5082084;28;19909;-67
2022/10/14 13:00:52;;;;;;;;;;;17.10;99.90;;;;;;5058432;28;19912;-67
2022/10/14 13:03:19;;;;;;;;;;;17.10;99.90;;;;;;5076481;28;20324;-67
2022/10/14 13:05:45;;;;;;;;;;;17.20;99.90;;;;;;5076109;28;20289;-67
2022/10/14 13:10:56;;;;;;;;;;;17.40;99.90;;;;;;5091293;27;20399;-68
2022/10/14 13:13:48;;;;;;;;;;;17.40;99.90;;;;;;5091402;28;19916;-68
2022/10/14 13:18:57;;;;;;;;;;;17.60;99.90;;;;;;5071194;28;19912;-70
2022/10/14 13:21:42;;;;;;;;;;;17.60;99.90;;;;;;5070960;28;19913;-68
2022/10/14 13:24:28;;;;;;;;;;;17.40;99.90;;;;;;5071097;28;19909;-68
2022/10/14 13:29:38;;;;;;;;;;;17.30;99.90;;;;;;5091075;27;19919;-67
2022/10/14 13:32:11;;;;;;;;;;;17.20;99.90;;;;;;5091123;28;19958;-68
2022/10/14 13:34:56;;;;;;;;;;;17.10;99.90;;;;;;5091029;28;19912;-68
2022/10/14 13:37:38;;;;;;;;;;;17.00;99.90;;;;;;5090988;28;19962;-67
2022/10/14 13:40:07;;;;;;;;;;;17.00;99.90;;;;;;5090978;28;19915;-68
2022/10/14 13:42:35;;;;;;;;;;;16.90;99.90;;;;;;5089558;28;20327;-67
2022/10/14 13:45:05;;;;;;;;;;;16.80;99.90;;;;;;5091106;28;20285;-68
2022/10/14 13:47:32;;;;;;;;;;;16.60;99.90;;;;;;5089642;28;19978;-68
2022/10/14 13:49:59;;;;;;;;;;;16.50;99.90;;;;;;5090859;28;19909;-68
2022/10/14 13:52:26;;;;;;;;;;;16.50;99.90;;;;;;5089470;28;20382;-68
2022/10/14 13:55:12;;;;;;;;;;;16.50;99.90;;;;;;5091019;28;19908;-68
2022/10/14 13:57:37;;;;;;;;;;;16.50;99.90;;;;;;5090629;28;19915;-68
2022/10/14 14:00:19;;;;;;;;;;;16.60;99.90;;;;;;5090602;28;20365;-68
2022/10/14 14:02:45;;;;;;;;;;;16.60;99.90;;;;;;5090825;28;19908;-68
2022/10/14 14:05:14;;;;;;;;;;;16.70;99.90;;;;;;5090539;28;19908;-68
2022/10/14 14:07:42;;;;;;;;;;;16.60;99.90;;;;;;5090402;28;19965;-68
2022/10/14 14:10:08;;;;;;;;;;;16.60;99.90;;;;;;5090416;28;19908;-68
2022/10/14 14:12:34;;;;;;;;;;;16.50;99.90;;;;;;5123132;28;19909;-68
2022/10/14 14:14:59;;;;;;;;;;;16.50;99.90;;;;;;5090369;28;20277;-68
2022/10/14 14:17:26;;;;;;;;;;;16.40;99.90;;;;;;5090347;28;19908;-68
2022/10/14 14:19:52;;;;;;;;;;;16.40;99.90;;;;;;5090261;28;19916;-68
2022/10/14 14:22:19;;;;;;;;;;;16.20;99.90;;;;;;5090182;28;20277;-68
2022/10/14 14:24:45;;;;;;;;;;;15.90;99.90;;;;;;5123055;28;19915;-68
2022/10/14 14:27:12;;;;;;;;;;;15.70;99.90;;;;;;5090933;28;19916;-68
2022/10/14 14:29:39;;;;;;;;;;;15.60;99.90;;;;;;5110564;28;19908;-67
2022/10/14 14:32:06;;;;;;;;;;;15.50;99.90;;;;;;5110359;28;19908;-68
2022/10/14 14:34:31;;;;;;;;;;;15.40;99.90;;;;;;5110590;28;19908;-68
2022/10/14 14:36:57;;;;;;;;;;;15.30;99.90;;;;;;5092008;28;19915;-68
2022/10/14 14:39:24;;;;;;;;;;;15.20;99.90;;;;;;5104894;28;19908;-68
2022/10/14 14:41:51;;;;;;;;;;;15.20;99.90;;;;;;5096483;28;19914;-67
2022/10/14 14:44:19;;;;;;;;;;;15.20;99.90;;;;;;5096830;28;19909;-67
2022/10/14 14:46:45;;;;;;;;;;;15.20;99.90;;;;;;5096528;28;19951;-67
2022/10/14 14:49:13;;;;;;;;;;;15.10;99.90;;;;;;5096643;28;19916;-67
2022/10/14 14:51:39;;;;;;;;;;;15.10;99.90;;;;;;5096392;28;20355;-67